sensor_id;sensor_type;location;lat;lon;timestamp;P1;durP1;ratioP1;P2;durP2;ratioP2
46721;SDS011;32455;43.430;23.136;2023-08-20T00:00:45;5.55;;;3.70;;
46721;SDS011;32455;43.430;23.136;2023-08-20T00:03:32;5.50;;;4.22;;
46721;SDS011;32455;43.430;23.136;2023-08-20T00:06:17;5.70;;;4.30;;
46721;SDS011;32455;43.430;23.136;2023-08-20T00:09:03;6.53;;;4.05;;
46721;SDS011;32455;43.430;23.136;2023-08-20T00:11:51;17.55;;;4.97;;
46721;SDS011;32455;43.430;23.136;2023-08-20T00:14:55;6.93;;;4.20;;
46721;SDS011;32455;43.430;23.136;2023-08-20T00:17:51;5.25;;;3.92;;
46721;SDS011;32455;43.430;23.136;2023-08-20T00:20:37;5.75;;;4.20;;
46721;SDS011;32455;43.430;23.136;2023-08-20T00:23:25;4.43;;;3.72;;
46721;SDS011;32455;43.430;23.136;2023-08-20T00:26:11;6.00;;;4.38;;
46721;SDS011;32455;43.430;23.136;2023-08-20T00:28:56;5.70;;;4.60;;
46721;SDS011;32455;43.430;23.136;2023-08-20T00:31:42;6.32;;;4.20;;
46721;SDS011;32455;43.430;23.136;2023-08-20T00:34:27;6.90;;;4.47;;
46721;SDS011;32455;43.430;23.136;2023-08-20T00:37:12;6.55;;;4.28;;
46721;SDS011;32455;43.430;23.136;2023-08-20T00:39:57;10.32;;;4.30;;
46721;SDS011;32455;43.430;23.136;2023-08-20T00:42:42;7.30;;;4.10;;
46721;SDS011;32455;43.430;23.136;2023-08-20T00:45:28;7.75;;;4.55;;
46721;SDS011;32455;43.430;23.136;2023-08-20T00:48:13;4.72;;;4.32;;
46721;SDS011;32455;43.430;23.136;2023-08-20T00:51:00;4.75;;;4.35;;
46721;SDS011;32455;43.430;23.136;2023-08-20T00:53:45;5.47;;;4.15;;
46721;SDS011;32455;43.430;23.136;2023-08-20T00:56:30;8.10;;;4.28;;
46721;SDS011;32455;43.430;23.136;2023-08-20T00:59:16;8.10;;;4.63;;
46721;SDS011;32455;43.430;23.136;2023-08-20T01:02:01;9.55;;;4.22;;
46721;SDS011;32455;43.430;23.136;2023-08-20T01:04:47;7.45;;;4.40;;
46721;SDS011;32455;43.430;23.136;2023-08-20T01:07:38;4.82;;;4.30;;
46721;SDS011;32455;43.430;23.136;2023-08-20T01:13:38;6.22;;;4.63;;
46721;SDS011;32455;43.430;23.136;2023-08-20T01:16:23;5.30;;;4.70;;
46721;SDS011;32455;43.430;23.136;2023-08-20T01:19:10;6.15;;;4.25;;
46721;SDS011;32455;43.430;23.136;2023-08-20T01:25:18;6.28;;;4.53;;
46721;SDS011;32455;43.430;23.136;2023-08-20T01:31:14;6.30;;;4.82;;
46721;SDS011;32455;43.430;23.136;2023-08-20T01:34:00;7.47;;;5.10;;
46721;SDS011;32455;43.430;23.136;2023-08-20T01:36:46;9.70;;;4.75;;
46721;SDS011;32455;43.430;23.136;2023-08-20T01:39:31;7.13;;;4.65;;
46721;SDS011;32455;43.430;23.136;2023-08-20T01:42:18;4.72;;;4.30;;
46721;SDS011;32455;43.430;23.136;2023-08-20T01:45:03;5.20;;;4.72;;
46721;SDS011;32455;43.430;23.136;2023-08-20T01:47:50;6.60;;;5.05;;
46721;SDS011;32455;43.430;23.136;2023-08-20T01:50:36;5.45;;;4.90;;
46721;SDS011;32455;43.430;23.136;2023-08-20T01:53:22;5.90;;;4.47;;
46721;SDS011;32455;43.430;23.136;2023-08-20T01:56:11;11.55;;;4.60;;
46721;SDS011;32455;43.430;23.136;2023-08-20T01:58:57;8.35;;;4.43;;
46721;SDS011;32455;43.430;23.136;2023-08-20T02:01:42;7.85;;;5.13;;
46721;SDS011;32455;43.430;23.136;2023-08-20T02:04:27;6.30;;;4.20;;
46721;SDS011;32455;43.430;23.136;2023-08-20T02:07:13;5.03;;;4.53;;
46721;SDS011;32455;43.430;23.136;2023-08-20T02:09:58;7.47;;;4.28;;
46721;SDS011;32455;43.430;23.136;2023-08-20T02:12:44;8.15;;;4.45;;
46721;SDS011;32455;43.430;23.136;2023-08-20T02:15:28;7.63;;;5.07;;
46721;SDS011;32455;43.430;23.136;2023-08-20T02:18:14;4.43;;;4.03;;
46721;SDS011;32455;43.430;23.136;2023-08-20T02:21:02;5.30;;;4.80;;
46721;SDS011;32455;43.430;23.136;2023-08-20T02:23:47;6.53;;;5.00;;
46721;SDS011;32455;43.430;23.136;2023-08-20T02:26:33;5.50;;;4.93;;
46721;SDS011;32455;43.430;23.136;2023-08-20T02:29:18;5.80;;;4.47;;
46721;SDS011;32455;43.430;23.136;2023-08-20T02:32:04;7.10;;;4.60;;
46721;SDS011;32455;43.430;23.136;2023-08-20T02:34:51;5.75;;;5.18;;
46721;SDS011;32455;43.430;23.136;2023-08-20T02:37:37;8.00;;;5.47;;
46721;SDS011;32455;43.430;23.136;2023-08-20T02:40:22;9.90;;;5.18;;
46721;SDS011;32455;43.430;23.136;2023-08-20T02:43:08;8.82;;;4.95;;
46721;SDS011;32455;43.430;23.136;2023-08-20T02:45:54;7.70;;;4.95;;
46721;SDS011;32455;43.430;23.136;2023-08-20T02:48:39;6.43;;;4.90;;
46721;SDS011;32455;43.430;23.136;2023-08-20T02:51:24;4.80;;;4.38;;
46721;SDS011;32455;43.430;23.136;2023-08-20T02:54:09;4.93;;;4.47;;
46721;SDS011;32455;43.430;23.136;2023-08-20T02:56:53;5.90;;;4.53;;
46721;SDS011;32455;43.430;23.136;2023-08-20T02:59:38;6.82;;;4.75;;
46721;SDS011;32455;43.430;23.136;2023-08-20T03:02:23;5.13;;;4.57;;
46721;SDS011;32455;43.430;23.136;2023-08-20T03:05:09;7.93;;;4.93;;
46721;SDS011;32455;43.430;23.136;2023-08-20T03:07:55;8.50;;;4.78;;
46721;SDS011;32455;43.430;23.136;2023-08-20T03:10:40;5.40;;;4.90;;
46721;SDS011;32455;43.430;23.136;2023-08-20T03:13:25;6.70;;;4.90;;
46721;SDS011;32455;43.430;23.136;2023-08-20T03:16:11;6.95;;;4.68;;
46721;SDS011;32455;43.430;23.136;2023-08-20T03:18:56;7.53;;;5.15;;
46721;SDS011;32455;43.430;23.136;2023-08-20T03:21:41;8.30;;;4.88;;
46721;SDS011;32455;43.430;23.136;2023-08-20T03:24:27;11.13;;;5.03;;
46721;SDS011;32455;43.430;23.136;2023-08-20T03:27:15;7.03;;;4.75;;
46721;SDS011;32455;43.430;23.136;2023-08-20T03:30:01;6.63;;;4.78;;
46721;SDS011;32455;43.430;23.136;2023-08-20T03:32:48;5.70;;;4.50;;
46721;SDS011;32455;43.430;23.136;2023-08-20T03:35:33;6.88;;;4.70;;
46721;SDS011;32455;43.430;23.136;2023-08-20T03:38:19;11.38;;;4.32;;
46721;SDS011;32455;43.430;23.136;2023-08-20T03:41:05;8.50;;;4.97;;
46721;SDS011;32455;43.430;23.136;2023-08-20T03:43:51;8.15;;;5.20;;
46721;SDS011;32455;43.430;23.136;2023-08-20T03:46:37;12.82;;;5.22;;
46721;SDS011;32455;43.430;23.136;2023-08-20T03:49:22;5.85;;;4.93;;
46721;SDS011;32455;43.430;23.136;2023-08-20T03:52:07;6.38;;;5.20;;
46721;SDS011;32455;43.430;23.136;2023-08-20T03:54:52;10.35;;;6.35;;
46721;SDS011;32455;43.430;23.136;2023-08-20T03:57:37;14.98;;;11.25;;
46721;SDS011;32455;43.430;23.136;2023-08-20T04:00:23;23.65;;;16.38;;
46721;SDS011;32455;43.430;23.136;2023-08-20T04:03:08;18.38;;;12.10;;
46721;SDS011;32455;43.430;23.136;2023-08-20T04:05:54;11.20;;;10.00;;
46721;SDS011;32455;43.430;23.136;2023-08-20T04:08:39;11.38;;;6.43;;
46721;SDS011;32455;43.430;23.136;2023-08-20T04:11:24;7.45;;;5.40;;
46721;SDS011;32455;43.430;23.136;2023-08-20T04:14:09;5.70;;;5.18;;
46721;SDS011;32455;43.430;23.136;2023-08-20T04:16:55;6.47;;;4.97;;
46721;SDS011;32455;43.430;23.136;2023-08-20T04:19:40;7.65;;;4.93;;
46721;SDS011;32455;43.430;23.136;2023-08-20T04:22:26;5.15;;;4.43;;
46721;SDS011;32455;43.430;23.136;2023-08-20T04:25:13;7.00;;;4.55;;
46721;SDS011;32455;43.430;23.136;2023-08-20T04:27:59;8.27;;;5.03;;
46721;SDS011;32455;43.430;23.136;2023-08-20T04:30:44;7.15;;;4.78;;
46721;SDS011;32455;43.430;23.136;2023-08-20T04:33:29;10.07;;;4.95;;
46721;SDS011;32455;43.430;23.136;2023-08-20T04:36:15;6.30;;;4.95;;
46721;SDS011;32455;43.430;23.136;2023-08-20T04:39:00;6.68;;;4.70;;
46721;SDS011;32455;43.430;23.136;2023-08-20T04:41:46;9.13;;;5.00;;
46721;SDS011;32455;43.430;23.136;2023-08-20T04:44:31;5.20;;;4.70;;
46721;SDS011;32455;43.430;23.136;2023-08-20T04:47:16;5.53;;;4.65;;
46721;SDS011;32455;43.430;23.136;2023-08-20T04:50:02;5.93;;;4.80;;
46721;SDS011;32455;43.430;23.136;2023-08-20T04:52:49;6.75;;;4.57;;
46721;SDS011;32455;43.430;23.136;2023-08-20T04:55:35;7.95;;;5.40;;
46721;SDS011;32455;43.430;23.136;2023-08-20T04:58:21;7.07;;;4.97;;
46721;SDS011;32455;43.430;23.136;2023-08-20T05:01:06;7.07;;;5.10;;
46721;SDS011;32455;43.430;23.136;2023-08-20T05:03:53;6.28;;;4.45;;
46721;SDS011;32455;43.430;23.136;2023-08-20T05:06:39;5.32;;;4.82;;
46721;SDS011;32455;43.430;23.136;2023-08-20T05:09:24;7.53;;;4.85;;
46721;SDS011;32455;43.430;23.136;2023-08-20T05:12:09;5.35;;;4.78;;
46721;SDS011;32455;43.430;23.136;2023-08-20T05:14:54;6.57;;;4.70;;
46721;SDS011;32455;43.430;23.136;2023-08-20T05:17:40;5.35;;;4.03;;
46721;SDS011;32455;43.430;23.136;2023-08-20T05:20:25;5.93;;;4.15;;
46721;SDS011;32455;43.430;23.136;2023-08-20T05:23:10;5.18;;;4.68;;
46721;SDS011;32455;43.430;23.136;2023-08-20T05:25:56;6.32;;;4.28;;
46721;SDS011;32455;43.430;23.136;2023-08-20T05:28:41;7.18;;;4.55;;
46721;SDS011;32455;43.430;23.136;2023-08-20T05:31:27;4.25;;;3.85;;
46721;SDS011;32455;43.430;23.136;2023-08-20T05:34:13;8.32;;;4.00;;
46721;SDS011;32455;43.430;23.136;2023-08-20T05:36:58;5.15;;;4.15;;
46721;SDS011;32455;43.430;23.136;2023-08-20T05:39:45;4.88;;;4.32;;
46721;SDS011;32455;43.430;23.136;2023-08-20T05:42:30;4.40;;;4.00;;
46721;SDS011;32455;43.430;23.136;2023-08-20T05:45:15;7.88;;;4.40;;
46721;SDS011;32455;43.430;23.136;2023-08-20T05:48:01;7.90;;;4.35;;
46721;SDS011;32455;43.430;23.136;2023-08-20T05:50:46;5.68;;;4.03;;
46721;SDS011;32455;43.430;23.136;2023-08-20T05:53:31;5.78;;;4.47;;
46721;SDS011;32455;43.430;23.136;2023-08-20T05:56:17;7.22;;;5.45;;
46721;SDS011;32455;43.430;23.136;2023-08-20T05:59:02;15.07;;;5.45;;
46721;SDS011;32455;43.430;23.136;2023-08-20T06:01:48;6.22;;;5.03;;
46721;SDS011;32455;43.430;23.136;2023-08-20T06:04:33;12.10;;;5.32;;
46721;SDS011;32455;43.430;23.136;2023-08-20T06:07:18;7.05;;;5.93;;
46721;SDS011;32455;43.430;23.136;2023-08-20T06:10:04;8.90;;;5.97;;
46721;SDS011;32455;43.430;23.136;2023-08-20T06:12:50;6.35;;;4.75;;
46721;SDS011;32455;43.430;23.136;2023-08-20T06:15:35;8.75;;;5.00;;
46721;SDS011;32455;43.430;23.136;2023-08-20T06:18:20;7.20;;;5.70;;
46721;SDS011;32455;43.430;23.136;2023-08-20T06:21:05;8.63;;;5.72;;
46721;SDS011;32455;43.430;23.136;2023-08-20T06:23:50;9.35;;;5.63;;
46721;SDS011;32455;43.430;23.136;2023-08-20T06:26:35;12.48;;;5.57;;
46721;SDS011;32455;43.430;23.136;2023-08-20T06:29:20;7.10;;;5.40;;
46721;SDS011;32455;43.430;23.136;2023-08-20T06:32:06;7.10;;;5.07;;
46721;SDS011;32455;43.430;23.136;2023-08-20T06:34:52;11.48;;;5.60;;
46721;SDS011;32455;43.430;23.136;2023-08-20T06:37:39;10.13;;;5.43;;
46721;SDS011;32455;43.430;23.136;2023-08-20T06:40:25;8.25;;;5.53;;
46721;SDS011;32455;43.430;23.136;2023-08-20T06:43:10;10.40;;;5.20;;
46721;SDS011;32455;43.430;23.136;2023-08-20T06:45:56;6.82;;;4.80;;
46721;SDS011;32455;43.430;23.136;2023-08-20T06:48:42;6.65;;;5.00;;
46721;SDS011;32455;43.430;23.136;2023-08-20T06:51:27;6.13;;;5.45;;
46721;SDS011;32455;43.430;23.136;2023-08-20T06:54:14;9.93;;;6.43;;
46721;SDS011;32455;43.430;23.136;2023-08-20T06:57:00;6.78;;;5.18;;
46721;SDS011;32455;43.430;23.136;2023-08-20T06:59:45;8.40;;;5.78;;
46721;SDS011;32455;43.430;23.136;2023-08-20T07:02:31;7.90;;;5.35;;
46721;SDS011;32455;43.430;23.136;2023-08-20T07:05:16;10.95;;;6.10;;
46721;SDS011;32455;43.430;23.136;2023-08-20T07:08:03;9.45;;;5.38;;
46721;SDS011;32455;43.430;23.136;2023-08-20T07:10:48;9.38;;;5.47;;
46721;SDS011;32455;43.430;23.136;2023-08-20T07:13:34;9.18;;;5.00;;
46721;SDS011;32455;43.430;23.136;2023-08-20T07:16:19;8.15;;;5.13;;
46721;SDS011;32455;43.430;23.136;2023-08-20T07:19:04;11.13;;;4.75;;
46721;SDS011;32455;43.430;23.136;2023-08-20T07:21:50;10.15;;;5.97;;
46721;SDS011;32455;43.430;23.136;2023-08-20T07:24:35;13.32;;;5.82;;
46721;SDS011;32455;43.430;23.136;2023-08-20T07:27:20;6.55;;;5.32;;
46721;SDS011;32455;43.430;23.136;2023-08-20T07:30:05;13.13;;;5.47;;
46721;SDS011;32455;43.430;23.136;2023-08-20T07:32:51;13.45;;;6.13;;
46721;SDS011;32455;43.430;23.136;2023-08-20T07:35:37;7.13;;;4.95;;
46721;SDS011;32455;43.430;23.136;2023-08-20T07:38:23;6.78;;;4.22;;
46721;SDS011;32455;43.430;23.136;2023-08-20T07:41:09;8.68;;;4.32;;
46721;SDS011;32455;43.430;23.136;2023-08-20T07:43:58;6.10;;;4.40;;
46721;SDS011;32455;43.430;23.136;2023-08-20T07:46:43;8.65;;;4.63;;
46721;SDS011;32455;43.430;23.136;2023-08-20T07:49:29;7.10;;;4.18;;
46721;SDS011;32455;43.430;23.136;2023-08-20T07:52:14;4.70;;;3.80;;
46721;SDS011;32455;43.430;23.136;2023-08-20T07:54:59;5.22;;;3.65;;
46721;SDS011;32455;43.430;23.136;2023-08-20T07:57:45;7.45;;;4.00;;
46721;SDS011;32455;43.430;23.136;2023-08-20T08:00:33;5.72;;;4.32;;
46721;SDS011;32455;43.430;23.136;2023-08-20T08:03:18;4.38;;;3.65;;
46721;SDS011;32455;43.430;23.136;2023-08-20T08:06:03;8.65;;;5.45;;
46721;SDS011;32455;43.430;23.136;2023-08-20T08:08:48;10.02;;;4.50;;
46721;SDS011;32455;43.430;23.136;2023-08-20T08:11:34;6.97;;;4.80;;
46721;SDS011;32455;43.430;23.136;2023-08-20T08:14:20;6.65;;;4.38;;
46721;SDS011;32455;43.430;23.136;2023-08-20T08:17:05;5.68;;;3.95;;
46721;SDS011;32455;43.430;23.136;2023-08-20T08:19:51;8.07;;;4.40;;
46721;SDS011;32455;43.430;23.136;2023-08-20T08:22:39;6.40;;;4.05;;
46721;SDS011;32455;43.430;23.136;2023-08-20T08:25:25;11.05;;;4.60;;
46721;SDS011;32455;43.430;23.136;2023-08-20T08:28:11;5.18;;;4.00;;
46721;SDS011;32455;43.430;23.136;2023-08-20T08:30:57;6.57;;;4.10;;
46721;SDS011;32455;43.430;23.136;2023-08-20T08:33:42;6.47;;;4.30;;
46721;SDS011;32455;43.430;23.136;2023-08-20T08:36:27;11.02;;;4.32;;
46721;SDS011;32455;43.430;23.136;2023-08-20T08:39:13;11.73;;;5.60;;
46721;SDS011;32455;43.430;23.136;2023-08-20T08:42:02;9.10;;;5.07;;
46721;SDS011;32455;43.430;23.136;2023-08-20T08:44:49;4.93;;;4.43;;
46721;SDS011;32455;43.430;23.136;2023-08-20T08:47:34;12.60;;;4.70;;
46721;SDS011;32455;43.430;23.136;2023-08-20T08:50:21;8.00;;;4.53;;
46721;SDS011;32455;43.430;23.136;2023-08-20T08:53:07;8.10;;;4.10;;
46721;SDS011;32455;43.430;23.136;2023-08-20T08:55:53;12.10;;;4.97;;
46721;SDS011;32455;43.430;23.136;2023-08-20T08:58:38;5.88;;;4.68;;
46721;SDS011;32455;43.430;23.136;2023-08-20T09:01:24;6.88;;;4.40;;
46721;SDS011;32455;43.430;23.136;2023-08-20T09:04:10;8.95;;;5.00;;
46721;SDS011;32455;43.430;23.136;2023-08-20T09:06:55;7.97;;;4.30;;
46721;SDS011;32455;43.430;23.136;2023-08-20T09:09:42;8.25;;;4.45;;
46721;SDS011;32455;43.430;23.136;2023-08-20T09:12:29;13.30;;;4.35;;
46721;SDS011;32455;43.430;23.136;2023-08-20T09:15:19;8.23;;;4.13;;
46721;SDS011;32455;43.430;23.136;2023-08-20T09:18:04;6.22;;;4.32;;
46721;SDS011;32455;43.430;23.136;2023-08-20T09:20:54;4.53;;;3.80;;
46721;SDS011;32455;43.430;23.136;2023-08-20T09:23:39;12.00;;;4.85;;
46721;SDS011;32455;43.430;23.136;2023-08-20T09:26:25;6.00;;;4.03;;
46721;SDS011;32455;43.430;23.136;2023-08-20T09:29:11;4.70;;;4.13;;
46721;SDS011;32455;43.430;23.136;2023-08-20T09:32:00;5.75;;;3.97;;
46721;SDS011;32455;43.430;23.136;2023-08-20T09:34:50;8.55;;;4.28;;
46721;SDS011;32455;43.430;23.136;2023-08-20T09:37:36;6.55;;;4.07;;
46721;SDS011;32455;43.430;23.136;2023-08-20T09:40:21;6.63;;;4.55;;
46721;SDS011;32455;43.430;23.136;2023-08-20T09:43:07;7.18;;;4.22;;
46721;SDS011;32455;43.430;23.136;2023-08-20T09:45:55;10.43;;;4.80;;
46721;SDS011;32455;43.430;23.136;2023-08-20T09:48:43;7.57;;;4.03;;
46721;SDS011;32455;43.430;23.136;2023-08-20T09:51:32;7.50;;;4.25;;
46721;SDS011;32455;43.430;23.136;2023-08-20T09:54:21;8.40;;;4.07;;
46721;SDS011;32455;43.430;23.136;2023-08-20T09:57:15;6.63;;;4.53;;
46721;SDS011;32455;43.430;23.136;2023-08-20T10:00:12;9.32;;;4.40;;
46721;SDS011;32455;43.430;23.136;2023-08-20T10:02:58;5.60;;;4.10;;
46721;SDS011;32455;43.430;23.136;2023-08-20T10:05:45;11.35;;;4.43;;
46721;SDS011;32455;43.430;23.136;2023-08-20T10:08:32;7.30;;;4.10;;
46721;SDS011;32455;43.430;23.136;2023-08-20T10:11:18;6.45;;;3.97;;
46721;SDS011;32455;43.430;23.136;2023-08-20T10:14:04;5.43;;;3.97;;
46721;SDS011;32455;43.430;23.136;2023-08-20T10:16:49;7.13;;;4.07;;
46721;SDS011;32455;43.430;23.136;2023-08-20T10:19:37;4.72;;;3.90;;
46721;SDS011;32455;43.430;23.136;2023-08-20T10:22:45;7.82;;;4.53;;
46721;SDS011;32455;43.430;23.136;2023-08-20T10:25:30;5.90;;;4.22;;
46721;SDS011;32455;43.430;23.136;2023-08-20T10:28:25;7.55;;;4.15;;
46721;SDS011;32455;43.430;23.136;2023-08-20T10:31:12;5.07;;;4.22;;
46721;SDS011;32455;43.430;23.136;2023-08-20T10:33:58;7.60;;;4.30;;
46721;SDS011;32455;43.430;23.136;2023-08-20T10:36:43;13.45;;;4.68;;
46721;SDS011;32455;43.430;23.136;2023-08-20T10:39:36;10.80;;;4.20;;
46721;SDS011;32455;43.430;23.136;2023-08-20T10:45:10;5.18;;;3.92;;
46721;SDS011;32455;43.430;23.136;2023-08-20T10:47:56;6.75;;;4.10;;
46721;SDS011;32455;43.430;23.136;2023-08-20T10:50:42;7.18;;;4.10;;
46721;SDS011;32455;43.430;23.136;2023-08-20T10:53:28;8.95;;;3.88;;
46721;SDS011;32455;43.430;23.136;2023-08-20T10:59:22;7.55;;;3.95;;
46721;SDS011;32455;43.430;23.136;2023-08-20T11:02:12;7.38;;;3.55;;
46721;SDS011;32455;43.430;23.136;2023-08-20T11:05:02;9.70;;;4.43;;
46721;SDS011;32455;43.430;23.136;2023-08-20T11:07:49;5.50;;;3.90;;
46721;SDS011;32455;43.430;23.136;2023-08-20T11:10:37;5.43;;;4.10;;
46721;SDS011;32455;43.430;23.136;2023-08-20T11:13:22;7.57;;;4.47;;
46721;SDS011;32455;43.430;23.136;2023-08-20T11:16:10;5.32;;;3.67;;
46721;SDS011;32455;43.430;23.136;2023-08-20T11:18:55;6.15;;;4.38;;
46721;SDS011;32455;43.430;23.136;2023-08-20T11:21:43;6.35;;;3.80;;
46721;SDS011;32455;43.430;23.136;2023-08-20T11:24:29;6.75;;;4.00;;
46721;SDS011;32455;43.430;23.136;2023-08-20T11:27:14;4.68;;;3.88;;
46721;SDS011;32455;43.430;23.136;2023-08-20T11:30:00;7.18;;;3.67;;
46721;SDS011;32455;43.430;23.136;2023-08-20T11:32:49;4.65;;;3.17;;
46721;SDS011;32455;43.430;23.136;2023-08-20T11:35:37;4.07;;;3.67;;
46721;SDS011;32455;43.430;23.136;2023-08-20T11:38:23;7.18;;;3.97;;
46721;SDS011;32455;43.430;23.136;2023-08-20T11:41:09;6.90;;;3.95;;
46721;SDS011;32455;43.430;23.136;2023-08-20T11:43:55;4.28;;;3.67;;
46721;SDS011;32455;43.430;23.136;2023-08-20T11:46:43;5.28;;;3.60;;
46721;SDS011;32455;43.430;23.136;2023-08-20T11:49:29;6.00;;;4.00;;
46721;SDS011;32455;43.430;23.136;2023-08-20T11:52:14;4.35;;;3.70;;
46721;SDS011;32455;43.430;23.136;2023-08-20T11:55:01;7.53;;;3.75;;
46721;SDS011;32455;43.430;23.136;2023-08-20T11:57:49;5.40;;;3.20;;
46721;SDS011;32455;43.430;23.136;2023-08-20T12:00:36;4.38;;;3.78;;
46721;SDS011;32455;43.430;23.136;2023-08-20T12:03:21;3.75;;;3.42;;
46721;SDS011;32455;43.430;23.136;2023-08-20T12:06:19;7.10;;;3.80;;
46721;SDS011;32455;43.430;23.136;2023-08-20T12:09:20;7.20;;;3.83;;
46721;SDS011;32455;43.430;23.136;2023-08-20T12:12:07;5.00;;;3.40;;
46721;SDS011;32455;43.430;23.136;2023-08-20T12:14:52;4.85;;;3.47;;
46721;SDS011;32455;43.430;23.136;2023-08-20T12:17:38;3.92;;;3.38;;
46721;SDS011;32455;43.430;23.136;2023-08-20T12:20:23;4.10;;;3.63;;
46721;SDS011;32455;43.430;23.136;2023-08-20T12:23:09;4.93;;;3.28;;
46721;SDS011;32455;43.430;23.136;2023-08-20T12:25:54;6.38;;;3.40;;
46721;SDS011;32455;43.430;23.136;2023-08-20T12:28:39;3.78;;;3.47;;
46721;SDS011;32455;43.430;23.136;2023-08-20T12:31:26;7.32;;;3.35;;
46721;SDS011;32455;43.430;23.136;2023-08-20T12:34:11;5.78;;;3.35;;
46721;SDS011;32455;43.430;23.136;2023-08-20T12:36:57;3.75;;;3.45;;
46721;SDS011;32455;43.430;23.136;2023-08-20T12:39:43;4.40;;;3.55;;
46721;SDS011;32455;43.430;23.136;2023-08-20T12:42:31;5.82;;;3.40;;
46721;SDS011;32455;43.430;23.136;2023-08-20T12:45:17;5.90;;;3.42;;
46721;SDS011;32455;43.430;23.136;2023-08-20T12:48:03;5.45;;;3.20;;
46721;SDS011;32455;43.430;23.136;2023-08-20T12:50:49;7.63;;;3.70;;
46721;SDS011;32455;43.430;23.136;2023-08-20T12:53:34;6.53;;;3.90;;
46721;SDS011;32455;43.430;23.136;2023-08-20T12:56:19;5.18;;;3.53;;
46721;SDS011;32455;43.430;23.136;2023-08-20T12:59:05;6.72;;;3.15;;
46721;SDS011;32455;43.430;23.136;2023-08-20T13:01:50;4.88;;;3.22;;
46721;SDS011;32455;43.430;23.136;2023-08-20T13:04:36;3.78;;;3.03;;
46721;SDS011;32455;43.430;23.136;2023-08-20T13:07:21;4.25;;;3.20;;
46721;SDS011;32455;43.430;23.136;2023-08-20T13:10:07;3.40;;;3.10;;
46721;SDS011;32455;43.430;23.136;2023-08-20T13:12:53;6.32;;;3.78;;
46721;SDS011;32455;43.430;23.136;2023-08-20T13:15:38;6.03;;;3.47;;
46721;SDS011;32455;43.430;23.136;2023-08-20T13:18:25;5.32;;;3.35;;
46721;SDS011;32455;43.430;23.136;2023-08-20T13:21:10;3.90;;;3.05;;
46721;SDS011;32455;43.430;23.136;2023-08-20T13:23:56;5.45;;;3.35;;
46721;SDS011;32455;43.430;23.136;2023-08-20T13:26:41;4.07;;;3.22;;
46721;SDS011;32455;43.430;23.136;2023-08-20T13:29:26;7.30;;;3.30;;
46721;SDS011;32455;43.430;23.136;2023-08-20T13:32:11;3.70;;;3.38;;
46721;SDS011;32455;43.430;23.136;2023-08-20T13:34:57;5.80;;;3.03;;
46721;SDS011;32455;43.430;23.136;2023-08-20T13:37:43;4.85;;;3.78;;
46721;SDS011;32455;43.430;23.136;2023-08-20T13:40:28;4.07;;;3.40;;
46721;SDS011;32455;43.430;23.136;2023-08-20T13:43:13;4.85;;;3.42;;
46721;SDS011;32455;43.430;23.136;2023-08-20T13:45:59;4.43;;;3.10;;
46721;SDS011;32455;43.430;23.136;2023-08-20T13:48:44;6.10;;;3.20;;
46721;SDS011;32455;43.430;23.136;2023-08-20T13:51:29;5.95;;;3.13;;
46721;SDS011;32455;43.430;23.136;2023-08-20T13:54:14;4.82;;;3.65;;
46721;SDS011;32455;43.430;23.136;2023-08-20T13:57:00;4.03;;;3.53;;
46721;SDS011;32455;43.430;23.136;2023-08-20T13:59:45;4.75;;;3.30;;
46721;SDS011;32455;43.430;23.136;2023-08-20T14:02:30;4.75;;;3.35;;
46721;SDS011;32455;43.430;23.136;2023-08-20T14:05:15;3.88;;;3.58;;
46721;SDS011;32455;43.430;23.136;2023-08-20T14:08:01;3.78;;;3.25;;
46721;SDS011;32455;43.430;23.136;2023-08-20T14:10:46;4.85;;;3.80;;
46721;SDS011;32455;43.430;23.136;2023-08-20T14:13:32;5.40;;;3.50;;
46721;SDS011;32455;43.430;23.136;2023-08-20T14:16:17;5.65;;;3.58;;
46721;SDS011;32455;43.430;23.136;2023-08-20T14:19:02;3.92;;;3.50;;
46721;SDS011;32455;43.430;23.136;2023-08-20T14:21:48;7.63;;;3.47;;
46721;SDS011;32455;43.430;23.136;2023-08-20T14:24:36;4.22;;;3.63;;
46721;SDS011;32455;43.430;23.136;2023-08-20T14:27:21;7.03;;;3.47;;
46721;SDS011;32455;43.430;23.136;2023-08-20T14:30:07;7.47;;;3.50;;
46721;SDS011;32455;43.430;23.136;2023-08-20T14:32:53;6.28;;;3.90;;
46721;SDS011;32455;43.430;23.136;2023-08-20T14:35:38;3.55;;;3.25;;
46721;SDS011;32455;43.430;23.136;2023-08-20T14:38:24;5.70;;;3.40;;
46721;SDS011;32455;43.430;23.136;2023-08-20T14:41:09;5.53;;;3.22;;
46721;SDS011;32455;43.430;23.136;2023-08-20T14:43:54;5.78;;;3.65;;
46721;SDS011;32455;43.430;23.136;2023-08-20T14:46:39;10.05;;;3.50;;
46721;SDS011;32455;43.430;23.136;2023-08-20T14:49:24;4.78;;;3.60;;
46721;SDS011;32455;43.430;23.136;2023-08-20T14:52:10;5.90;;;3.40;;
46721;SDS011;32455;43.430;23.136;2023-08-20T14:54:54;4.05;;;3.38;;
46721;SDS011;32455;43.430;23.136;2023-08-20T14:57:39;6.63;;;3.47;;
46721;SDS011;32455;43.430;23.136;2023-08-20T15:00:26;6.53;;;3.58;;
46721;SDS011;32455;43.430;23.136;2023-08-20T15:03:12;10.95;;;5.57;;
46721;SDS011;32455;43.430;23.136;2023-08-20T15:05:57;5.32;;;3.90;;
46721;SDS011;32455;43.430;23.136;2023-08-20T15:08:42;5.88;;;3.97;;
46721;SDS011;32455;43.430;23.136;2023-08-20T15:11:27;5.05;;;3.80;;
46721;SDS011;32455;43.430;23.136;2023-08-20T15:14:13;6.32;;;3.45;;
46721;SDS011;32455;43.430;23.136;2023-08-20T15:16:58;7.25;;;4.03;;
46721;SDS011;32455;43.430;23.136;2023-08-20T15:19:43;6.95;;;3.80;;
46721;SDS011;32455;43.430;23.136;2023-08-20T15:22:29;5.18;;;3.90;;
46721;SDS011;32455;43.430;23.136;2023-08-20T15:25:14;5.25;;;3.72;;
46721;SDS011;32455;43.430;23.136;2023-08-20T15:28:00;6.93;;;3.60;;
46721;SDS011;32455;43.430;23.136;2023-08-20T15:30:45;5.63;;;3.80;;
46721;SDS011;32455;43.430;23.136;2023-08-20T15:33:30;8.98;;;3.97;;
46721;SDS011;32455;43.430;23.136;2023-08-20T15:36:16;5.80;;;4.18;;
46721;SDS011;32455;43.430;23.136;2023-08-20T15:39:01;7.35;;;3.80;;
46721;SDS011;32455;43.430;23.136;2023-08-20T15:41:47;15.07;;;4.72;;
46721;SDS011;32455;43.430;23.136;2023-08-20T15:44:33;4.70;;;3.88;;
46721;SDS011;32455;43.430;23.136;2023-08-20T15:47:18;10.10;;;4.10;;
46721;SDS011;32455;43.430;23.136;2023-08-20T15:50:04;5.55;;;3.70;;
46721;SDS011;32455;43.430;23.136;2023-08-20T15:52:50;4.97;;;3.88;;
46721;SDS011;32455;43.430;23.136;2023-08-20T15:55:36;5.82;;;3.70;;
46721;SDS011;32455;43.430;23.136;2023-08-20T15:58:21;6.07;;;3.63;;
46721;SDS011;32455;43.430;23.136;2023-08-20T16:01:07;5.88;;;3.40;;
46721;SDS011;32455;43.430;23.136;2023-08-20T16:03:53;6.78;;;3.70;;
46721;SDS011;32455;43.430;23.136;2023-08-20T16:06:39;9.05;;;5.22;;
46721;SDS011;32455;43.430;23.136;2023-08-20T16:09:24;14.73;;;6.45;;
46721;SDS011;32455;43.430;23.136;2023-08-20T16:12:10;17.52;;;9.95;;
46721;SDS011;32455;43.430;23.136;2023-08-20T16:14:55;24.92;;;12.23;;
46721;SDS011;32455;43.430;23.136;2023-08-20T16:17:40;19.90;;;10.63;;
46721;SDS011;32455;43.430;23.136;2023-08-20T16:20:26;15.25;;;8.90;;
46721;SDS011;32455;43.430;23.136;2023-08-20T16:23:11;8.43;;;5.82;;
46721;SDS011;32455;43.430;23.136;2023-08-20T16:25:55;11.98;;;6.65;;
46721;SDS011;32455;43.430;23.136;2023-08-20T16:28:42;18.77;;;12.27;;
46721;SDS011;32455;43.430;23.136;2023-08-20T16:31:27;14.73;;;10.02;;
46721;SDS011;32455;43.430;23.136;2023-08-20T16:34:12;14.05;;;10.15;;
46721;SDS011;32455;43.430;23.136;2023-08-20T16:36:58;12.43;;;9.40;;
46721;SDS011;32455;43.430;23.136;2023-08-20T16:39:43;11.15;;;10.00;;